KLMT/LMT METAR and TAF weather

Enter ICAO airport designator
Station Type Date Time Source
KLMT METAR 2022/06/27 17:53 UTC NOAA

KLMT 271753Z 14006KT 10SM CLR 28/01 A3017 RMK AO2 SLP171 T02830011 10289 20094 58008


Station Type Date Time Source
KLMT Decoded METAR 2022/06/27 17:53 UTC NOAA

KLAMATH FALLS INTERNATIONAL AIRPORT, OR, United States (KLMT) 42-09N 121-43W 1246M
Jun 27, 2022 - 01:53 PM EDT / 2022.06.27 1753 UTC
Wind: from the SE (140 degrees) at 7 MPH (6 KT):0
Visibility: 10 mile(s):0
Sky conditions: clear
Temperature: 82.9 F (28.3 C)
Dew Point: 34.0 F (1.1 C)
Relative Humidity: 17%
Pressure (altimeter): 30.17 in. Hg (1021 hPa)
Pressure tendency: 0.02 inches (0.8 hPa) lower than three hours ago
ob: KLMT 271753Z 14006KT 10SM CLR 28/01 A3017 RMK AO2 SLP171 T02830011 10289 20094 58008
cycle: 18

Station Type Date Time Source
KLMT TAF 2022/06/27 18:42 UTC NOAA

TAF KLMT 271740Z 2718/2818 21007KT P6SM BKN250
FM272100 21015G24KT P6SM SKC
FM280300 25009KT P6SM SKC
FM280600 25004KT P6SM SKC

Example: see airport list